Time;durP1;ratioP1;P1;durP2;ratioP2;P2;SDS_P1;SDS_P2;PMS_P1;PMS_P2;Temp;Humidity;BMP_temperature;BMP_pressure;BME280_temperature;BME280_humidity;BME280_pressure;Samples;Min_cycle;Max_cycle;Signal;HPM_P1;HPM_P2
2022/08/29 00:00:06;;;;;;;31.42;13.58;;;;;;;;;;1750532;81;21107;-60
2022/08/29 00:02:34;;;;;;;28.45;13.85;;;;;;;;;;1744443;82;20993;-60
2022/08/29 00:05:01;;;;;;;21.73;13.00;;;;;;;;;;1751280;81;21087;-60
2022/08/29 00:07:28;;;;;;;27.30;14.28;;;;;;;;;;1745825;81;21119;-60
2022/08/29 00:09:56;;;;;;;26.48;13.68;;;;;;;;;;1746413;81;21071;-60
2022/08/29 00:12:23;;;;;;;24.87;13.40;;;;;;;;;;1750661;81;21039;-60
2022/08/29 00:14:51;;;;;;;30.43;14.38;;;;;;;;;;1745371;81;21564;-59
2022/08/29 00:17:18;;;;;;;24.75;13.25;;;;;;;;;;1749445;82;21047;-59
2022/08/29 00:19:46;;;;;;;27.48;13.03;;;;;;;;;;1745550;81;21086;-60
2022/08/29 00:22:14;;;;;;;22.73;13.45;;;;;;;;;;1749057;81;21508;-60
2022/08/29 00:24:41;;;;;;;29.67;14.55;;;;;;;;;;1751606;81;21063;-60
2022/08/29 00:27:09;;;;;;;24.77;14.20;;;;;;;;;;1750677;81;21008;-60
2022/08/29 00:29:36;;;;;;;25.65;13.40;;;;;;;;;;1753823;81;21091;-60
2022/08/29 00:32:03;;;;;;;26.35;13.78;;;;;;;;;;1748588;81;21134;-61
2022/08/29 00:34:30;;;;;;;26.12;14.10;;;;;;;;;;1744667;81;21059;-60
2022/08/29 00:36:56;;;;;;;25.05;13.93;;;;;;;;;;1749045;81;21096;-60
2022/08/29 00:39:23;;;;;;;24.92;13.43;;;;;;;;;;1747186;81;21008;-59
2022/08/29 00:41:50;;;;;;;30.95;13.95;;;;;;;;;;1746631;81;21102;-60
2022/08/29 00:44:17;;;;;;;26.70;14.93;;;;;;;;;;1746809;81;21051;-59
2022/08/29 00:46:47;;;;;;;31.48;14.30;;;;;;;;;;1745846;81;21047;-60
2022/08/29 00:49:35;;;;;;;23.12;14.18;;;;;;;;;;1745322;82;21528;-60
2022/08/29 00:52:19;;;;;;;24.20;14.18;;;;;;;;;;1746115;82;21095;-60
2022/08/29 00:54:49;;;;;;;27.17;14.10;;;;;;;;;;1745211;82;21029;-60
2022/08/29 00:57:18;;;;;;;25.48;14.13;;;;;;;;;;1750516;81;21035;-60
2022/08/29 00:59:48;;;;;;;27.35;14.43;;;;;;;;;;1751096;81;21067;-59
2022/08/29 01:02:16;;;;;;;28.40;15.28;;;;;;;;;;1750807;81;21543;-60
2022/08/29 01:04:43;;;;;;;28.70;15.58;;;;;;;;;;1741909;81;21595;-60
2022/08/29 01:07:10;;;;;;;32.67;15.50;;;;;;;;;;1753143;81;21532;-59
2022/08/29 01:09:38;;;;;;;29.90;15.75;;;;;;;;;;1749233;81;21087;-59
2022/08/29 01:12:15;;;;;;;29.45;16.48;;;;;;;;;;1748838;81;21041;-59
2022/08/29 01:14:48;;;;;;;28.47;16.17;;;;;;;;;;1748995;81;21048;-60
2022/08/29 01:17:34;;;;;;;25.70;15.78;;;;;;;;;;1741126;81;21071;-59
2022/08/29 01:20:13;;;;;;;28.98;15.95;;;;;;;;;;1749563;81;21036;-60
2022/08/29 01:23:13;;;;;;;31.57;19.12;;;;;;;;;;1749594;82;21512;-59
2022/08/29 01:25:45;;;;;;;36.30;19.10;;;;;;;;;;1751170;81;21059;-59
2022/08/29 01:28:24;;;;;;;29.23;17.92;;;;;;;;;;1747355;82;20976;-60
2022/08/29 01:31:13;;;;;;;32.35;17.70;;;;;;;;;;1752330;81;21118;-59
2022/08/29 01:33:49;;;;;;;34.15;19.27;;;;;;;;;;1749173;81;21040;-60
2022/08/29 01:36:28;;;;;;;37.42;19.48;;;;;;;;;;1749109;82;21056;-61
2022/08/29 01:38:55;;;;;;;32.33;18.62;;;;;;;;;;1716734;82;21508;-59
2022/08/29 01:41:22;;;;;;;30.43;19.05;;;;;;;;;;1745192;81;21090;-59
2022/08/29 01:43:52;;;;;;;34.80;19.02;;;;;;;;;;1745986;81;21019;-59
2022/08/29 01:46:21;;;;;;;31.33;17.98;;;;;;;;;;1739174;81;21109;-59
2022/08/29 01:48:50;;;;;;;31.50;18.65;;;;;;;;;;1758304;81;21169;-60
2022/08/29 01:51:17;;;;;;;42.43;20.10;;;;;;;;;;1751088;81;20999;-61
2022/08/29 01:53:44;;;;;;;44.65;21.97;;;;;;;;;;1755755;81;21058;-60
2022/08/29 01:56:15;;;;;;;41.53;20.70;;;;;;;;;;1744680;81;21506;-59
2022/08/29 01:58:43;;;;;;;34.27;16.62;;;;;;;;;;1747245;82;21025;-60
2022/08/29 02:01:13;;;;;;;35.00;17.35;;;;;;;;;;1748879;81;21027;-59
2022/08/29 02:03:40;;;;;;;43.17;19.50;;;;;;;;;;1746817;81;21035;-59
2022/08/29 02:06:09;;;;;;;50.25;20.55;;;;;;;;;;1752037;81;21092;-60
2022/08/29 02:08:37;;;;;;;41.80;20.60;;;;;;;;;;1749752;81;21044;-60
2022/08/29 02:11:08;;;;;;;39.18;19.98;;;;;;;;;;1746808;81;21106;-60
2022/08/29 02:13:33;;;;;;;50.33;22.82;;;;;;;;;;1747369;81;21044;-60
2022/08/29 02:16:00;;;;;;;61.92;24.32;;;;;;;;;;1749267;81;21047;-60
2022/08/29 02:18:27;;;;;;;63.42;24.50;;;;;;;;;;1748665;81;21063;-60
2022/08/29 02:20:54;;;;;;;64.97;25.30;;;;;;;;;;1751305;81;21063;-60
2022/08/29 02:23:23;;;;;;;57.75;24.87;;;;;;;;;;1750076;80;21070;-60
2022/08/29 02:25:50;;;;;;;46.08;23.70;;;;;;;;;;1751700;81;21024;-61
2022/08/29 02:28:17;;;;;;;59.18;25.12;;;;;;;;;;1747320;81;21550;-60
2022/08/29 02:30:47;;;;;;;57.85;26.23;;;;;;;;;;1751041;81;21548;-61
2022/08/29 02:33:15;;;;;;;59.75;25.37;;;;;;;;;;1749525;81;20987;-62
2022/08/29 02:35:43;;;;;;;67.08;24.87;;;;;;;;;;1746083;81;21077;-61
2022/08/29 02:38:11;;;;;;;60.15;27.22;;;;;;;;;;1747907;81;21035;-60
2022/08/29 02:40:38;;;;;;;60.52;26.02;;;;;;;;;;1747282;82;21080;-60
2022/08/29 02:43:05;;;;;;;60.75;27.65;;;;;;;;;;1750536;81;21020;-60
2022/08/29 02:45:32;;;;;;;80.53;25.62;;;;;;;;;;1742518;81;21024;-61
2022/08/29 02:47:59;;;;;;;70.55;29.05;;;;;;;;;;1723180;82;21000;-61
2022/08/29 02:50:26;;;;;;;84.72;28.67;;;;;;;;;;1755640;82;21011;-61
2022/08/29 02:52:53;;;;;;;101.47;28.77;;;;;;;;;;1747967;81;21091;-61
2022/08/29 02:55:21;;;;;;;65.17;28.77;;;;;;;;;;1691531;83;21023;-61
2022/08/29 02:57:48;;;;;;;69.62;29.72;;;;;;;;;;1748909;81;21075;-60
2022/08/29 03:00:18;;;;;;;82.37;29.70;;;;;;;;;;1744019;82;21005;-61
2022/08/29 03:02:46;;;;;;;71.05;30.12;;;;;;;;;;1748103;81;21100;-61
2022/08/29 03:05:14;;;;;;;75.32;28.25;;;;;;;;;;1751242;81;21094;-61
2022/08/29 03:07:41;;;;;;;68.15;27.65;;;;;;;;;;1752161;81;21511;-61
2022/08/29 03:10:08;;;;;;;83.35;28.38;;;;;;;;;;1744769;81;21063;-61
2022/08/29 03:12:35;;;;;;;67.87;27.37;;;;;;;;;;1743573;81;21031;-62
2022/08/29 03:15:04;;;;;;;60.65;26.45;;;;;;;;;;1745289;81;21511;-61
2022/08/29 03:17:31;;;;;;;67.25;26.73;;;;;;;;;;1744223;81;21012;-61
2022/08/29 03:19:58;;;;;;;81.15;26.00;;;;;;;;;;1754315;81;21534;-61
2022/08/29 03:22:26;;;;;;;55.30;27.02;;;;;;;;;;1749264;81;21453;-60
2022/08/29 03:24:53;;;;;;;61.63;26.85;;;;;;;;;;1750293;81;21001;-61
2022/08/29 03:27:21;;;;;;;72.10;26.93;;;;;;;;;;1746925;82;20997;-60
2022/08/29 03:29:48;;;;;;;68.02;28.17;;;;;;;;;;1747274;81;21493;-61
2022/08/29 03:32:15;;;;;;;68.50;26.80;;;;;;;;;;1750203;81;21015;-61
2022/08/29 03:34:42;;;;;;;63.75;27.00;;;;;;;;;;1750830;81;21027;-62
2022/08/29 03:37:09;;;;;;;54.05;27.37;;;;;;;;;;1746521;82;21076;-60
2022/08/29 03:39:36;;;;;;;67.22;29.15;;;;;;;;;;1749684;81;21067;-61
2022/08/29 03:42:05;;;;;;;51.80;27.30;;;;;;;;;;1741946;81;21095;-60
2022/08/29 03:44:36;;;;;;;57.85;32.90;;;;;;;;;;1743120;81;21012;-60
2022/08/29 03:47:04;;;;;;;61.98;30.45;;;;;;;;;;1752619;81;21049;-60
2022/08/29 03:49:32;;;;;;;50.52;32.25;;;;;;;;;;1753021;81;21534;-61
2022/08/29 03:51:58;;;;;;;47.40;32.25;;;;;;;;;;1747544;81;21124;-61
2022/08/29 03:54:26;;;;;;;50.60;33.18;;;;;;;;;;1751545;81;21561;-60
2022/08/29 03:56:54;;;;;;;50.10;32.10;;;;;;;;;;1750869;81;21028;-61
2022/08/29 03:59:21;;;;;;;44.10;32.05;;;;;;;;;;1752617;81;21058;-60
2022/08/29 04:01:49;;;;;;;49.05;30.17;;;;;;;;;;1751491;81;21577;-60
2022/08/29 04:07:05;;;;;;;49.70;26.35;;;;;;;;;;1747148;81;21123;-60
2022/08/29 04:09:32;;;;;;;42.67;27.70;;;;;;;;;;1750804;81;21005;-60
2022/08/29 04:11:59;;;;;;;42.62;28.45;;;;;;;;;;1755172;81;21046;-61
2022/08/29 04:14:26;;;;;;;40.70;29.00;;;;;;;;;;1749338;81;21587;-60
2022/08/29 04:16:54;;;;;;;35.52;26.87;;;;;;;;;;1749991;81;21040;-60
2022/08/29 04:19:21;;;;;;;36.58;27.60;;;;;;;;;;1746972;81;21019;-60
2022/08/29 04:21:48;;;;;;;39.50;28.75;;;;;;;;;;1748890;81;21079;-60
2022/08/29 04:24:18;;;;;;;44.13;28.55;;;;;;;;;;1748690;81;21023;-60
2022/08/29 04:26:45;;;;;;;39.73;27.00;;;;;;;;;;1751886;82;21004;-60
2022/08/29 04:29:13;;;;;;;35.33;26.65;;;;;;;;;;1747658;81;21020;-61
2022/08/29 04:31:42;;;;;;;31.68;24.65;;;;;;;;;;1748314;81;21052;-60
2022/08/29 04:34:11;;;;;;;28.77;23.40;;;;;;;;;;1751505;81;21059;-60
2022/08/29 04:36:40;;;;;;;31.75;23.85;;;;;;;;;;1750437;81;21014;-60
2022/08/29 04:39:08;;;;;;;30.48;23.32;;;;;;;;;;1743031;81;21086;-61
2022/08/29 04:41:36;;;;;;;32.30;23.80;;;;;;;;;;1752937;80;20982;-60
2022/08/29 04:44:04;;;;;;;32.53;23.92;;;;;;;;;;1758438;81;20996;-61
2022/08/29 04:46:31;;;;;;;30.62;22.55;;;;;;;;;;1764332;80;21037;-61
2022/08/29 04:48:58;;;;;;;28.00;21.97;;;;;;;;;;1742690;80;21049;-60
2022/08/29 04:51:25;;;;;;;29.27;22.60;;;;;;;;;;1745486;81;21476;-62
2022/08/29 04:53:52;;;;;;;31.10;24.12;;;;;;;;;;1729098;81;21088;-61
2022/08/29 04:56:20;;;;;;;34.55;25.08;;;;;;;;;;1738912;81;21008;-59
2022/08/29 04:58:49;;;;;;;32.70;24.87;;;;;;;;;;1740003;81;21032;-60
2022/08/29 05:01:18;;;;;;;36.20;25.60;;;;;;;;;;1744482;81;21009;-59
2022/08/29 05:03:45;;;;;;;43.23;29.95;;;;;;;;;;1746845;81;21544;-59
2022/08/29 05:06:14;;;;;;;47.40;32.00;;;;;;;;;;1747075;81;21104;-60
2022/08/29 05:08:42;;;;;;;46.25;31.37;;;;;;;;;;1761840;81;21081;-60
2022/08/29 05:11:11;;;;;;;43.63;31.52;;;;;;;;;;1758284;81;21027;-60
2022/08/29 05:13:38;;;;;;;42.78;31.95;;;;;;;;;;1747613;82;21031;-60
2022/08/29 05:16:07;;;;;;;45.08;31.93;;;;;;;;;;1747355;82;21028;-60
2022/08/29 05:18:34;;;;;;;46.30;33.25;;;;;;;;;;1722589;82;20996;-60
2022/08/29 05:21:01;;;;;;;46.68;33.75;;;;;;;;;;1743214;82;21008;-60
2022/08/29 05:23:28;;;;;;;47.85;33.42;;;;;;;;;;1742270;82;21026;-60
2022/08/29 05:25:57;;;;;;;46.10;31.85;;;;;;;;;;1745701;81;21114;-61
2022/08/29 05:28:25;;;;;;;38.50;29.55;;;;;;;;;;1741115;81;21475;-60
2022/08/29 05:30:52;;;;;;;36.70;27.55;;;;;;;;;;1742988;82;21027;-59
2022/08/29 05:33:19;;;;;;;38.73;28.05;;;;;;;;;;1740822;82;21059;-60
2022/08/29 05:35:46;;;;;;;40.85;28.75;;;;;;;;;;1741367;82;21575;-60
2022/08/29 05:38:13;;;;;;;38.78;27.77;;;;;;;;;;1743049;82;21521;-60
2022/08/29 05:40:41;;;;;;;42.55;29.85;;;;;;;;;;1742980;81;21007;-60
2022/08/29 05:43:09;;;;;;;43.38;29.25;;;;;;;;;;1741230;81;21043;-61
2022/08/29 05:45:37;;;;;;;39.48;27.58;;;;;;;;;;1741904;82;20975;-60
2022/08/29 05:48:06;;;;;;;38.60;27.45;;;;;;;;;;1741126;81;21202;-59
2022/08/29 05:50:38;;;;;;;37.38;26.37;;;;;;;;;;1740987;82;21070;-60
2022/08/29 05:53:04;;;;;;;38.55;25.50;;;;;;;;;;1740047;82;21018;-61
2022/08/29 05:55:31;;;;;;;39.15;25.15;;;;;;;;;;1740372;81;21087;-61
2022/08/29 05:57:59;;;;;;;35.45;22.37;;;;;;;;;;1740588;82;21014;-61
2022/08/29 06:00:26;;;;;;;30.68;21.48;;;;;;;;;;1740837;82;20992;-60
2022/08/29 06:02:54;;;;;;;32.03;20.55;;;;;;;;;;1742473;82;21086;-60
2022/08/29 06:05:20;;;;;;;34.50;20.37;;;;;;;;;;1741438;82;21564;-60
2022/08/29 06:07:47;;;;;;;29.92;20.43;;;;;;;;;;1742249;82;21114;-61
2022/08/29 06:10:14;;;;;;;31.02;19.60;;;;;;;;;;1740199;81;21586;-62
2022/08/29 06:12:43;;;;;;;26.00;17.48;;;;;;;;;;1740584;82;21186;-61
2022/08/29 06:15:10;;;;;;;25.48;17.17;;;;;;;;;;1740354;82;21023;-60
2022/08/29 06:17:38;;;;;;;26.82;17.48;;;;;;;;;;1741074;82;21043;-60
2022/08/29 06:20:09;;;;;;;24.43;16.85;;;;;;;;;;1741415;82;21546;-61
2022/08/29 06:22:37;;;;;;;27.58;16.73;;;;;;;;;;1742156;81;21129;-61
2022/08/29 06:25:05;;;;;;;21.33;14.95;;;;;;;;;;1742162;82;21101;-61
2022/08/29 06:27:33;;;;;;;26.07;13.08;;;;;;;;;;1740553;82;21086;-60
2022/08/29 06:30:00;;;;;;;31.20;14.75;;;;;;;;;;1740220;82;21043;-61
2022/08/29 06:32:27;;;;;;;28.35;13.70;;;;;;;;;;1740356;81;21066;-61
2022/08/29 06:34:53;;;;;;;20.52;11.03;;;;;;;;;;1742205;82;21069;-61
2022/08/29 06:37:20;;;;;;;22.65;10.85;;;;;;;;;;1741423;82;21063;-60
2022/08/29 06:39:48;;;;;;;22.93;11.05;;;;;;;;;;1742320;81;21032;-61
2022/08/29 06:42:17;;;;;;;25.25;12.15;;;;;;;;;;1742855;82;21027;-60
2022/08/29 06:44:44;;;;;;;27.13;10.90;;;;;;;;;;1741343;81;21032;-60
2022/08/29 06:47:10;;;;;;;19.75;11.00;;;;;;;;;;1741723;82;21027;-60
2022/08/29 06:49:37;;;;;;;27.80;11.53;;;;;;;;;;1741208;82;21082;-60
2022/08/29 06:52:04;;;;;;;20.02;11.60;;;;;;;;;;1743091;82;21055;-60
2022/08/29 06:54:32;;;;;;;28.83;11.65;;;;;;;;;;1742760;82;21063;-61
2022/08/29 06:56:59;;;;;;;27.55;12.03;;;;;;;;;;1741967;82;21014;-61
2022/08/29 06:59:26;;;;;;;30.52;12.75;;;;;;;;;;1728826;81;21044;-61
2022/08/29 07:01:56;;;;;;;22.40;11.80;;;;;;;;;;1741438;81;21064;-60
2022/08/29 07:04:23;;;;;;;25.30;12.23;;;;;;;;;;1766650;81;21000;-60
2022/08/29 07:06:51;;;;;;;25.62;11.73;;;;;;;;;;1766439;81;21103;-61
2022/08/29 07:09:18;;;;;;;19.98;9.83;;;;;;;;;;1754164;81;21056;-60
2022/08/29 07:11:45;;;;;;;22.07;8.78;;;;;;;;;;1763956;81;21096;-60
2022/08/29 07:14:13;;;;;;;25.35;10.20;;;;;;;;;;1763884;80;21165;-62
2022/08/29 07:16:41;;;;;;;23.27;10.20;;;;;;;;;;1762662;80;21477;-60
2022/08/29 07:19:09;;;;;;;22.25;9.05;;;;;;;;;;1761360;81;21013;-62
2022/08/29 07:21:35;;;;;;;18.98;8.18;;;;;;;;;;1757571;80;21007;-61
2022/08/29 07:24:03;;;;;;;21.15;9.75;;;;;;;;;;1760483;81;21008;-61
2022/08/29 07:26:35;;;;;;;20.43;8.40;;;;;;;;;;1761026;80;21469;-60
2022/08/29 07:29:06;;;;;;;21.95;8.68;;;;;;;;;;1747046;81;21048;-60
2022/08/29 07:31:33;;;;;;;19.55;8.60;;;;;;;;;;1764537;81;21034;-60
2022/08/29 07:34:00;;;;;;;20.92;8.68;;;;;;;;;;1764144;81;21040;-60
2022/08/29 07:36:27;;;;;;;22.98;8.40;;;;;;;;;;1762447;81;21479;-61
2022/08/29 07:38:54;;;;;;;17.85;8.78;;;;;;;;;;1753969;81;20976;-60
2022/08/29 07:41:20;;;;;;;20.92;8.50;;;;;;;;;;1757843;80;21677;-61
2022/08/29 07:43:49;;;;;;;35.92;22.62;;;;;;;;;;1763044;81;21535;-61
2022/08/29 07:46:17;;;;;;;18.57;8.83;;;;;;;;;;1760377;81;21532;-61
2022/08/29 07:48:44;;;;;;;19.45;8.60;;;;;;;;;;1754988;80;21007;-61
2022/08/29 07:51:17;;;;;;;19.57;8.40;;;;;;;;;;1750870;81;21032;-62
2022/08/29 07:53:45;;;;;;;18.00;8.10;;;;;;;;;;1757163;80;21067;-61
2022/08/29 07:56:15;;;;;;;16.87;8.38;;;;;;;;;;1760722;80;21520;-61
2022/08/29 07:58:43;;;;;;;18.57;8.28;;;;;;;;;;1763805;81;21099;-61
2022/08/29 08:01:10;;;;;;;14.45;8.08;;;;;;;;;;1761953;81;21052;-61
2022/08/29 08:03:37;;;;;;;15.25;7.58;;;;;;;;;;1766190;81;21033;-61
2022/08/29 08:06:05;;;;;;;15.25;7.62;;;;;;;;;;1760584;81;21594;-61
2022/08/29 08:08:32;;;;;;;19.98;8.48;;;;;;;;;;1762569;81;21025;-60
2022/08/29 08:10:59;;;;;;;16.02;8.28;;;;;;;;;;1763847;81;21460;-61
2022/08/29 08:13:27;;;;;;;15.80;8.33;;;;;;;;;;1763595;80;21072;-61
2022/08/29 08:15:54;;;;;;;19.27;8.13;;;;;;;;;;1763935;81;21075;-61
2022/08/29 08:18:21;;;;;;;20.68;8.18;;;;;;;;;;1758535;80;21074;-61
2022/08/29 08:20:49;;;;;;;16.62;7.92;;;;;;;;;;1763905;81;21044;-61
2022/08/29 08:23:17;;;;;;;18.45;7.28;;;;;;;;;;1754743;80;21052;-61
2022/08/29 08:25:45;;;;;;;21.12;7.67;;;;;;;;;;1761093;81;21059;-61
2022/08/29 08:28:13;;;;;;;18.20;7.37;;;;;;;;;;1747400;81;21040;-61
2022/08/29 08:30:41;;;;;;;16.10;8.00;;;;;;;;;;1763408;81;21001;-61
2022/08/29 08:33:08;;;;;;;18.67;7.40;;;;;;;;;;1763831;81;21053;-61
2022/08/29 08:35:36;;;;;;;15.98;7.20;;;;;;;;;;1765924;81;21043;-61
2022/08/29 08:38:04;;;;;;;14.53;7.22;;;;;;;;;;1766142;81;21476;-61
2022/08/29 08:40:31;;;;;;;15.20;7.28;;;;;;;;;;1759174;81;21028;-62
2022/08/29 08:43:01;;;;;;;22.02;7.12;;;;;;;;;;1764884;81;21072;-61
2022/08/29 08:45:42;;;;;;;19.23;7.37;;;;;;;;;;1764245;81;21083;-61
2022/08/29 08:48:29;;;;;;;19.75;6.85;;;;;;;;;;1766436;81;21024;-61
2022/08/29 08:51:05;;;;;;;13.93;6.65;;;;;;;;;;1764214;81;21488;-61
2022/08/29 08:53:38;;;;;;;16.05;6.78;;;;;;;;;;1757199;81;21031;-61
2022/08/29 08:56:17;;;;;;;18.00;7.33;;;;;;;;;;1759750;80;21089;-61
2022/08/29 08:58:57;;;;;;;16.40;7.37;;;;;;;;;;1727170;82;21039;-61
2022/08/29 09:01:27;;;;;;;19.10;6.75;;;;;;;;;;1762526;81;21066;-61
2022/08/29 09:04:20;;;;;;;19.73;7.45;;;;;;;;;;1759858;81;21056;-61
2022/08/29 09:06:53;;;;;;;15.78;7.05;;;;;;;;;;1757117;81;21177;-61
2022/08/29 09:09:48;;;;;;;10.00;5.92;;;;;;;;;;1757705;81;21542;-61
2022/08/29 09:12:41;;;;;;;14.85;6.50;;;;;;;;;;1761078;80;21610;-63
2022/08/29 09:15:19;;;;;;;14.75;6.25;;;;;;;;;;1754010;81;21082;-62
2022/08/29 09:18:02;;;;;;;13.88;6.08;;;;;;;;;;1752540;81;21025;-62
2022/08/29 09:20:31;;;;;;;21.62;6.50;;;;;;;;;;1754866;80;21003;-62
2022/08/29 09:23:19;;;;;;;14.83;6.00;;;;;;;;;;1751842;80;21047;-62
2022/08/29 09:25:47;;;;;;;16.70;5.87;;;;;;;;;;1756821;81;21052;-61
2022/08/29 09:28:14;;;;;;;15.80;5.70;;;;;;;;;;1763943;80;21080;-61
2022/08/29 09:30:43;;;;;;;12.60;6.15;;;;;;;;;;1754095;80;20988;-59
2022/08/29 09:33:15;;;;;;;14.58;5.70;;;;;;;;;;1757364;81;21068;-59
2022/08/29 09:35:47;;;;;;;20.80;6.40;;;;;;;;;;1736522;81;21032;-59
2022/08/29 09:38:22;;;;;;;11.70;5.27;;;;;;;;;;1755058;80;21035;-59
2022/08/29 09:40:55;;;;;;;24.15;5.47;;;;;;;;;;1761883;81;21126;-59
2022/08/29 09:43:30;;;;;;;;;;;;;;;;;;1766241;81;22168;-59
2022/08/29 09:46:09;;;;;;;18.12;5.65;;;;;;;;;;1758409;80;20137;-59
2022/08/29 09:48:38;;;;;;;19.52;5.60;;;;;;;;;;1762797;80;21019;-60
2022/08/29 09:51:12;;;;;;;17.05;5.83;;;;;;;;;;1753793;81;21059;-60
2022/08/29 09:53:39;;;;;;;19.37;5.17;;;;;;;;;;1759346;81;21017;-60
2022/08/29 09:56:08;;;;;;;16.17;5.28;;;;;;;;;;1752835;81;21009;-60
2022/08/29 09:58:38;;;;;;;18.80;5.12;;;;;;;;;;1764324;81;21027;-59
2022/08/29 10:01:17;;;;;;;17.37;5.30;;;;;;;;;;1766509;81;21079;-59
2022/08/29 10:03:57;;;;;;;17.05;5.87;;;;;;;;;;1758512;81;21133;-59
2022/08/29 10:06:27;;;;;;;14.68;5.33;;;;;;;;;;1762095;81;21111;-59
2022/08/29 10:09:02;;;;;;;15.60;5.35;;;;;;;;;;1722782;81;22412;-60
2022/08/29 10:11:48;;;;;;;16.62;5.70;;;;;;;;;;1727790;81;21064;-61
2022/08/29 10:14:39;;;;;;;17.67;4.87;;;;;;;;;;1744009;81;21032;-61
2022/08/29 10:19:57;;;;;;;20.00;6.05;;;;;;;;;;1764250;81;21606;-61
2022/08/29 10:22:39;;;;;;;19.37;5.90;;;;;;;;;;1763790;81;21072;-62
2022/08/29 10:25:10;;;;;;;25.95;6.58;;;;;;;;;;1760287;81;21083;-62
2022/08/29 10:27:59;;;;;;;19.90;6.12;;;;;;;;;;1759042;81;21072;-59
2022/08/29 10:30:29;;;;;;;16.10;5.40;;;;;;;;;;1757386;81;21087;-60
2022/08/29 10:33:19;;;;;;;24.85;5.78;;;;;;;;;;1745721;80;21114;-59
2022/08/29 10:35:56;;;;;;;21.55;5.55;;;;;;;;;;1760319;81;21040;-60
2022/08/29 10:38:52;;;;;;;23.77;5.85;;;;;;;;;;1745050;80;21164;-60
2022/08/29 10:41:35;;;;;;;18.52;6.37;;;;;;;;;;1730127;82;21496;-60
2022/08/29 10:44:09;;;;;;;18.90;6.12;;;;;;;;;;1726211;82;21516;-60
2022/08/29 10:46:52;;;;;;;20.23;6.33;;;;;;;;;;1725189;82;21048;-60
2022/08/29 10:49:28;;;;;;;18.62;6.87;;;;;;;;;;1725443;82;21066;-59
2022/08/29 10:52:09;;;;;;;19.20;6.42;;;;;;;;;;1724346;82;21015;-61
2022/08/29 10:54:55;;;;;;;19.80;6.62;;;;;;;;;;1720515;83;21069;-61
2022/08/29 10:57:37;;;;;;;26.23;6.92;;;;;;;;;;1728830;83;21524;-60
2022/08/29 11:00:17;;;;;;;21.30;6.55;;;;;;;;;;1732629;82;21044;-59
2022/08/29 11:02:56;;;;;;;21.93;6.47;;;;;;;;;;1733694;82;21068;-60
2022/08/29 11:05:26;;;;;;;19.95;6.15;;;;;;;;;;1729103;82;21059;-59
2022/08/29 11:07:57;;;;;;;21.95;6.17;;;;;;;;;;1726072;82;21084;-60
2022/08/29 11:10:26;;;;;;;22.87;6.03;;;;;;;;;;1728051;82;21063;-62
2022/08/29 11:12:59;;;;;;;24.65;6.08;;;;;;;;;;1715007;83;21060;-60
2022/08/29 11:15:43;;;;;;;;;;;;;;;;;;1732843;82;21111;-59
2022/08/29 11:18:22;;;;;;;15.83;5.62;;;;;;;;;;1733890;82;20095;-59
2022/08/29 11:21:04;;;;;;;21.05;5.30;;;;;;;;;;1733554;82;21591;-60
2022/08/29 11:23:43;;;;;;;19.30;5.70;;;;;;;;;;1729942;82;21044;-60
2022/08/29 11:26:19;;;;;;;24.23;5.47;;;;;;;;;;1721504;82;21066;-61
2022/08/29 11:29:01;;;;;;;19.85;6.28;;;;;;;;;;1734815;82;21040;-61
2022/08/29 11:31:43;;;;;;;24.32;5.95;;;;;;;;;;1736141;82;21036;-60
2022/08/29 11:34:36;;;;;;;21.43;5.77;;;;;;;;;;1717195;83;21051;-60
2022/08/29 11:37:27;;;;;;;18.55;5.20;;;;;;;;;;1742642;81;21032;-59
2022/08/29 11:40:26;;;;;;;17.20;5.65;;;;;;;;;;1743982;81;21493;-60
2022/08/29 11:42:53;;;;;;;20.75;5.58;;;;;;;;;;1746242;82;21164;-60
2022/08/29 11:45:26;;;;;;;19.90;5.10;;;;;;;;;;1746960;82;21099;-60
2022/08/29 11:47:59;;;;;;;20.50;5.62;;;;;;;;;;1747191;81;21599;-60
2022/08/29 11:50:34;;;;;;;22.40;5.25;;;;;;;;;;1747350;81;21090;-60
2022/08/29 11:53:22;;;;;;;20.77;5.95;;;;;;;;;;1735446;81;21047;-60
2022/08/29 11:56:10;;;;;;;19.60;5.25;;;;;;;;;;1753806;81;21075;-60
2022/08/29 11:58:41;;;;;;;21.57;5.60;;;;;;;;;;1730467;81;21496;-60
2022/08/29 12:01:17;;;;;;;19.42;5.55;;;;;;;;;;1746867;81;21019;-61
2022/08/29 12:03:45;;;;;;;21.37;5.83;;;;;;;;;;1721304;81;21016;-60
2022/08/29 12:06:21;;;;;;;23.77;5.70;;;;;;;;;;1748288;82;21532;-60
2022/08/29 12:08:55;;;;;;;18.75;5.28;;;;;;;;;;1749833;81;20996;-59
2022/08/29 12:11:24;;;;;;;17.62;5.62;;;;;;;;;;1748411;81;21055;-60
2022/08/29 12:13:57;;;;;;;21.02;5.40;;;;;;;;;;1739659;81;21079;-60
2022/08/29 12:16:25;;;;;;;22.05;5.80;;;;;;;;;;1746019;81;21063;-59
2022/08/29 12:18:54;;;;;;;14.65;5.65;;;;;;;;;;1749016;81;21070;-60
2022/08/29 12:21:33;;;;;;;17.87;5.30;;;;;;;;;;1754802;81;21075;-60
2022/08/29 12:24:00;;;;;;;22.65;5.70;;;;;;;;;;1751286;81;21019;-60
2022/08/29 12:26:42;;;;;;;20.70;6.12;;;;;;;;;;1745563;81;21547;-60
2022/08/29 12:29:32;;;;;;;21.00;5.40;;;;;;;;;;1746652;82;21020;-60
2022/08/29 12:32:02;;;;;;;19.65;5.60;;;;;;;;;;1750098;81;21039;-60
2022/08/29 12:34:35;;;;;;;17.70;5.72;;;;;;;;;;1744626;81;21068;-60
2022/08/29 12:37:24;;;;;;;18.92;5.55;;;;;;;;;;1740528;81;21024;-60
2022/08/29 12:40:14;;;;;;;19.07;5.58;;;;;;;;;;1743214;81;21176;-61
2022/08/29 12:43:03;;;;;;;18.62;5.60;;;;;;;;;;1749461;81;21055;-60
2022/08/29 12:45:31;;;;;;;15.58;5.37;;;;;;;;;;1742239;81;21238;-60
2022/08/29 12:48:08;;;;;;;18.10;5.87;;;;;;;;;;1749421;81;21048;-60
2022/08/29 12:50:42;;;;;;;16.23;5.65;;;;;;;;;;1750194;81;21000;-61
2022/08/29 12:53:14;;;;;;;22.45;5.47;;;;;;;;;;1750499;81;21032;-61
2022/08/29 12:55:47;;;;;;;22.75;6.00;;;;;;;;;;1749580;81;21169;-61
2022/08/29 12:58:17;;;;;;;22.25;5.58;;;;;;;;;;1745717;81;21559;-61
2022/08/29 13:00:48;;;;;;;19.48;5.50;;;;;;;;;;1744164;81;21017;-61
2022/08/29 13:03:20;;;;;;;21.07;5.95;;;;;;;;;;1747563;81;21040;-61
2022/08/29 13:05:47;;;;;;;22.87;5.62;;;;;;;;;;1749600;81;21159;-61
2022/08/29 13:08:20;;;;;;;19.85;5.47;;;;;;;;;;1751855;81;21528;-61
2022/08/29 13:10:57;;;;;;;23.98;5.80;;;;;;;;;;1748688;81;21531;-61
2022/08/29 13:13:26;;;;;;;23.55;5.80;;;;;;;;;;1752030;81;21052;-61
2022/08/29 13:15:56;;;;;;;27.65;5.87;;;;;;;;;;1750300;81;21555;-61
2022/08/29 13:18:23;;;;;;;21.07;5.78;;;;;;;;;;1747060;81;21013;-62
2022/08/29 13:21:11;;;;;;;24.63;5.70;;;;;;;;;;1747218;81;21072;-61
2022/08/29 13:23:44;;;;;;;19.90;5.83;;;;;;;;;;1754511;81;21079;-61
2022/08/29 13:26:13;;;;;;;23.05;5.60;;;;;;;;;;1751974;81;21024;-61
2022/08/29 13:28:58;;;;;;;22.62;6.30;;;;;;;;;;1753023;81;21048;-62
2022/08/29 13:31:34;;;;;;;21.33;5.58;;;;;;;;;;1750474;81;21084;-62
2022/08/29 13:34:08;;;;;;;20.10;5.12;;;;;;;;;;1750872;81;21038;-62
2022/08/29 13:36:58;;;;;;;23.80;5.78;;;;;;;;;;1747023;81;21004;-62
2022/08/29 13:39:30;;;;;;;21.77;5.92;;;;;;;;;;1747207;81;21208;-61
2022/08/29 13:42:03;;;;;;;21.68;5.53;;;;;;;;;;1749962;81;21040;-62
2022/08/29 13:44:47;;;;;;;25.35;6.25;;;;;;;;;;1746250;81;21576;-61
2022/08/29 13:47:23;;;;;;;20.55;5.58;;;;;;;;;;1746136;81;21025;-61
2022/08/29 13:49:51;;;;;;;28.15;6.58;;;;;;;;;;1744836;81;21482;-62
2022/08/29 13:52:18;;;;;;;19.37;5.70;;;;;;;;;;1744439;81;21048;-63
2022/08/29 13:54:45;;;;;;;26.37;5.87;;;;;;;;;;1747350;81;21491;-61
2022/08/29 13:57:14;;;;;;;19.95;5.83;;;;;;;;;;1744604;81;21015;-62
2022/08/29 13:59:41;;;;;;;19.15;6.20;;;;;;;;;;1744964;81;21176;-62
2022/08/29 14:02:08;;;;;;;24.05;6.58;;;;;;;;;;1750561;81;21076;-61
2022/08/29 14:04:36;;;;;;;19.42;5.40;;;;;;;;;;1750630;81;21063;-61
2022/08/29 14:07:03;;;;;;;17.32;5.67;;;;;;;;;;1747092;82;21051;-61
2022/08/29 14:09:41;;;;;;;22.67;6.62;;;;;;;;;;1748357;81;21563;-62
2022/08/29 14:12:09;;;;;;;19.48;6.95;;;;;;;;;;1743778;81;21054;-60
2022/08/29 14:14:36;;;;;;;23.85;6.75;;;;;;;;;;1746758;81;21129;-62
2022/08/29 14:17:03;;;;;;;24.87;6.40;;;;;;;;;;1742325;81;21048;-61
2022/08/29 14:19:31;;;;;;;23.25;6.90;;;;;;;;;;1746774;81;21055;-61
2022/08/29 14:22:00;;;;;;;16.17;5.60;;;;;;;;;;1748299;82;21055;-61
2022/08/29 14:24:28;;;;;;;20.20;6.62;;;;;;;;;;1753046;81;21083;-60
2022/08/29 14:26:55;;;;;;;27.65;6.22;;;;;;;;;;1753887;81;21078;-61
2022/08/29 14:29:22;;;;;;;22.05;6.10;;;;;;;;;;1748622;81;21571;-61
2022/08/29 14:31:50;;;;;;;20.50;5.58;;;;;;;;;;1742055;81;21055;-61
2022/08/29 14:34:17;;;;;;;23.18;5.90;;;;;;;;;;1742884;81;21075;-62
2022/08/29 14:36:44;;;;;;;18.30;5.92;;;;;;;;;;1740783;81;21099;-61
2022/08/29 14:39:19;;;;;;;17.23;5.80;;;;;;;;;;1749938;82;21079;-61
2022/08/29 14:41:48;;;;;;;21.25;6.10;;;;;;;;;;1750527;81;21756;-62
2022/08/29 14:44:14;;;;;;;14.58;5.83;;;;;;;;;;1750189;82;21044;-62
2022/08/29 14:46:41;;;;;;;17.65;5.83;;;;;;;;;;1745021;81;21103;-62
2022/08/29 14:49:09;;;;;;;17.62;6.00;;;;;;;;;;1746969;81;21043;-61
2022/08/29 14:51:36;;;;;;;21.12;5.95;;;;;;;;;;1750804;81;21036;-61